createdAt,value
2022-11-24T00:01:04.529Z,100104.53
2022-11-24T00:02:36.351Z,100093.25
2022-11-24T00:04:08.137Z,100108.03
2022-11-24T00:05:39.852Z,100100.09
2022-11-24T00:07:12.837Z,100094.81
2022-11-24T00:08:46.342Z,100102.66
2022-11-24T00:10:18.070Z,100100.91
2022-11-24T00:11:49.735Z,100094.69
2022-11-24T00:13:21.424Z,100100.72
2022-11-24T00:14:53.035Z,100105.88
2022-11-24T00:16:26.914Z,100103.19
2022-11-24T00:17:58.607Z,100106.72
2022-11-24T00:19:30.255Z,100098.91
2022-11-24T00:21:02.389Z,100109.41
2022-11-24T00:22:35.340Z,100105.13
2022-11-24T00:24:07.117Z,100108.59
2022-11-24T00:25:38.729Z,100104.16
2022-11-24T00:27:10.496Z,100106.84
2022-11-24T00:28:43.516Z,100101.53
2022-11-24T00:30:15.634Z,100105.88
2022-11-24T00:31:47.233Z,100110.13
2022-11-24T00:33:18.820Z,100098.66
2022-11-24T00:34:50.422Z,100103.84
2022-11-24T00:36:23.900Z,100108.97
2022-11-24T00:37:56.841Z,100108.06
2022-11-24T00:39:28.530Z,100113.34
2022-11-24T00:41:00.166Z,100116.84
2022-11-24T00:42:31.767Z,100117.63
2022-11-24T00:44:03.759Z,100119.41
2022-11-24T00:45:35.363Z,100127.22
2022-11-24T00:47:07.099Z,100125.38
2022-11-24T00:48:38.943Z,100128.91
2022-11-24T00:50:10.722Z,100121.06
2022-11-24T00:51:42.399Z,100125.38
2022-11-24T00:53:15.391Z,100121.78
2022-11-24T00:54:47.033Z,100120.84
2022-11-24T00:56:19.124Z,100126.88
2022-11-24T00:57:51.240Z,100124.16
2022-11-24T00:59:22.875Z,100125.13
2022-11-24T01:00:54.605Z,100129.41
2022-11-24T01:02:26.810Z,100125.91
2022-11-24T01:04:01.225Z,100130.38
2022-11-24T01:05:35.888Z,100132.09
2022-11-24T01:07:07.650Z,100131.22
2022-11-24T01:08:41.499Z,100140.84
2022-11-24T01:10:13.137Z,100141.81
2022-11-24T01:12:03.986Z,100140.91
2022-11-24T01:13:35.764Z,100144.34
2022-11-24T01:15:08.136Z,100137.31
2022-11-24T01:16:39.797Z,100137.22
2022-11-24T01:18:13.120Z,100135.31
2022-11-24T01:19:47.111Z,100148.31
2022-11-24T01:21:20.130Z,100146.47
2022-11-24T01:22:51.801Z,100147.31
2022-11-24T01:24:25.176Z,100144.78
2022-11-24T01:25:56.781Z,100150.03
2022-11-24T01:27:28.490Z,100152.56
2022-11-24T01:29:00.096Z,100157.81
2022-11-24T01:30:31.811Z,100158.66
2022-11-24T01:32:03.756Z,100154.44
2022-11-24T01:33:35.666Z,100155.34
2022-11-24T01:35:08.608Z,100151.97
2022-11-24T01:36:40.295Z,100146.78
2022-11-24T01:38:11.929Z,100147.66
2022-11-24T01:39:44.939Z,100160.00
2022-11-24T01:41:19.219Z,100153.00
2022-11-24T01:42:52.264Z,100151.25
2022-11-24T01:44:26.227Z,100155.63
2022-11-24T01:46:01.942Z,100167.09
2022-11-24T01:47:36.337Z,100162.63
2022-11-24T01:49:13.455Z,100155.56
2022-11-24T01:50:46.343Z,100153.81
2022-11-24T01:52:25.930Z,100154.59
2022-11-24T01:54:00.744Z,100157.09
2022-11-24T01:55:36.975Z,100159.47
2022-11-24T01:57:16.990Z,100157.69
2022-11-24T01:58:50.309Z,100151.59
2022-11-24T02:00:22.448Z,100164.72
2022-11-24T02:01:56.759Z,100158.56
2022-11-24T02:03:32.783Z,100166.38
2022-11-24T02:05:10.104Z,100164.53
2022-11-24T02:06:45.751Z,100161.00
2022-11-24T02:08:22.833Z,100163.50
2022-11-24T02:09:57.841Z,100167.84
2022-11-24T02:11:34.794Z,100172.09
2022-11-24T02:13:06.507Z,100174.72
2022-11-24T02:14:40.358Z,100178.94
2022-11-24T02:16:12.728Z,100170.16
2022-11-24T02:17:44.783Z,100179.72
2022-11-24T02:19:25.361Z,100175.34
2022-11-24T02:20:57.261Z,100181.50
2022-11-24T02:22:37.788Z,100179.69
2022-11-24T02:24:16.174Z,100178.88
2022-11-24T02:25:56.165Z,100176.19
2022-11-24T02:27:29.164Z,100175.31
2022-11-24T02:29:00.923Z,100186.66
2022-11-24T02:30:32.835Z,100176.97
2022-11-24T02:32:08.123Z,100182.06
2022-11-24T02:33:40.638Z,100174.13
2022-11-24T02:35:13.585Z,100183.72
2022-11-24T02:36:45.184Z,100179.25
2022-11-24T02:38:16.824Z,100177.50
2022-11-24T02:39:48.409Z,100178.28
2022-11-24T02:41:23.628Z,100183.47
2022-11-24T02:42:59.189Z,100182.50
2022-11-24T02:44:35.237Z,100179.88
2022-11-24T02:46:07.264Z,100181.59
2022-11-24T02:47:38.903Z,100196.44
2022-11-24T02:49:10.486Z,100185.06
2022-11-24T02:50:42.198Z,100198.19
2022-11-24T02:52:13.931Z,100192.91
2022-11-24T02:53:45.783Z,100194.66
2022-11-24T02:55:17.559Z,100191.13
2022-11-24T02:56:49.169Z,100191.03
2022-11-24T02:58:22.139Z,100189.41
2022-11-24T02:59:53.735Z,100191.13
2022-11-24T03:01:25.451Z,100187.63
2022-11-24T03:02:57.185Z,100188.50
2022-11-24T03:04:28.910Z,100191.94
2022-11-24T03:06:00.567Z,100188.50
2022-11-24T03:07:32.219Z,100188.50
2022-11-24T03:09:04.112Z,100193.59
2022-11-24T03:10:35.834Z,100193.47
2022-11-24T03:12:07.788Z,100198.59
2022-11-24T03:13:40.777Z,100203.84
2022-11-24T03:15:12.373Z,100203.97
2022-11-24T03:16:43.999Z,100204.09
2022-11-24T03:18:15.619Z,100213.88
2022-11-24T03:19:47.253Z,100217.38
2022-11-24T03:21:19.228Z,100212.19
2022-11-24T03:22:50.952Z,100213.94
2022-11-24T03:24:22.538Z,100215.78
2022-11-24T03:25:54.939Z,100214.88
2022-11-24T03:27:26.656Z,100213.94
2022-11-24T03:28:59.785Z,100222.63
2022-11-24T03:30:31.425Z,100220.81
2022-11-24T03:32:03.200Z,100219.84
2022-11-24T03:33:35.120Z,100221.56
2022-11-24T03:35:07.632Z,100217.16
2022-11-24T03:36:39.290Z,100226.69
2022-11-24T03:38:10.934Z,100226.69
2022-11-24T03:39:42.674Z,100223.28
2022-11-24T03:41:14.344Z,100224.13
2022-11-24T03:42:45.991Z,100219.72
2022-11-24T03:44:18.947Z,100228.41
2022-11-24T03:45:50.615Z,100226.56
2022-11-24T03:47:22.293Z,100224.88
2022-11-24T03:48:53.925Z,100229.25
2022-11-24T03:50:25.531Z,100230.16
2022-11-24T03:51:57.162Z,100232.75
2022-11-24T03:53:30.936Z,100234.50
2022-11-24T03:55:02.561Z,100233.66
2022-11-24T03:56:34.146Z,100238.84
2022-11-24T03:58:05.723Z,100231.88
2022-11-24T03:59:39.130Z,100238.84
2022-11-24T04:01:10.959Z,100241.47
2022-11-24T04:02:42.618Z,100245.88
2022-11-24T04:04:14.582Z,100244.16
2022-11-24T04:05:46.509Z,100240.63
2022-11-24T04:07:18.479Z,100244.03
2022-11-24T04:08:50.100Z,100238.78
2022-11-24T04:10:21.695Z,100245.00
2022-11-24T04:12:11.948Z,100233.66
2022-11-24T04:13:47.354Z,100233.66
2022-11-24T04:15:20.673Z,100241.47
2022-11-24T04:16:52.294Z,100239.75
2022-11-24T04:18:23.982Z,100234.56
2022-11-24T04:19:55.729Z,100237.31
2022-11-24T04:21:27.379Z,100240.84
2022-11-24T04:22:59.068Z,100245.38
2022-11-24T04:24:30.871Z,100240.19
2022-11-24T04:26:02.625Z,100238.53
2022-11-24T04:27:34.885Z,100237.69
2022-11-24T04:29:06.528Z,100244.59
2022-11-24T04:30:44.387Z,100243.75
2022-11-24T04:32:16.079Z,100243.91
2022-11-24T04:33:47.652Z,100238.53
2022-11-24T04:35:20.079Z,100244.75
2022-11-24T04:36:51.687Z,100244.72
2022-11-24T04:39:23.808Z,100240.31
2022-11-24T04:40:15.024Z,100249.09
2022-11-24T04:41:47.520Z,100250.81
2022-11-24T04:43:20.003Z,100254.53
2022-11-24T04:44:51.822Z,100251.97
2022-11-24T04:46:24.803Z,100262.59
2022-11-24T04:47:56.412Z,100261.81
2022-11-24T04:49:28.230Z,100262.72
2022-11-24T04:51:04.172Z,100262.72
2022-11-24T04:52:35.800Z,100263.56
2022-11-24T04:54:09.409Z,100263.50
2022-11-24T04:55:41.299Z,100271.19
2022-11-24T04:57:15.883Z,100265.06
2022-11-24T04:58:47.939Z,100266.78
2022-11-24T05:00:19.824Z,100268.56
2022-11-24T05:01:52.854Z,100263.38
2022-11-24T05:03:24.473Z,100264.28
2022-11-24T05:04:56.141Z,100267.91
2022-11-24T05:06:27.841Z,100264.44
2022-11-24T05:07:59.916Z,100271.44
2022-11-24T05:09:54.950Z,100276.69
2022-11-24T05:11:23.290Z,100278.47
2022-11-24T05:12:56.534Z,100273.22
2022-11-24T05:14:28.287Z,100274.91
2022-11-24T05:16:01.248Z,100271.38
2022-11-24T05:17:36.123Z,100275.78
2022-11-24T05:19:08.412Z,100273.22
2022-11-24T05:20:40.014Z,100280.31
2022-11-24T05:22:11.671Z,100278.53
2022-11-24T05:23:43.312Z,100282.06
2022-11-24T05:25:15.435Z,100294.28
2022-11-24T05:26:47.097Z,100297.75
2022-11-24T05:28:19.453Z,100292.56
2022-11-24T05:29:51.057Z,100303.19
2022-11-24T05:31:22.856Z,100305.81
2022-11-24T05:32:55.891Z,100314.59
2022-11-24T05:34:28.331Z,100308.53
2022-11-24T05:36:01.441Z,100305.06
2022-11-24T05:37:33.052Z,100306.72
2022-11-24T05:39:04.669Z,100315.38
2022-11-24T05:40:36.491Z,100317.09
2022-11-24T05:42:26.768Z,100319.72
2022-11-24T05:43:58.465Z,100322.28
2022-11-24T05:45:30.568Z,100330.09
2022-11-24T05:47:02.239Z,100323.06
2022-11-24T05:48:35.277Z,100321.38
2022-11-24T05:50:07.839Z,100328.38
2022-11-24T05:51:39.523Z,100333.66
2022-11-24T05:53:13.199Z,100333.69
2022-11-24T05:54:44.850Z,100329.41
2022-11-24T05:56:16.603Z,100328.56
2022-11-24T05:57:48.382Z,100336.63
2022-11-24T05:59:20.097Z,100342.59
2022-11-24T06:00:51.725Z,100344.34
2022-11-24T06:02:23.508Z,100356.69
2022-11-24T06:03:56.610Z,100345.41
2022-11-24T06:05:29.828Z,100343.69
2022-11-24T06:07:01.790Z,100344.50
2022-11-24T06:08:34.130Z,100345.28
2022-11-24T06:10:06.123Z,100346.06
2022-11-24T06:11:37.819Z,100348.69
2022-11-24T06:13:09.569Z,100348.69
2022-11-24T06:14:41.807Z,100354.81
2022-11-24T06:16:13.593Z,100352.19
2022-11-24T06:17:52.034Z,100353.88
2022-11-24T06:19:25.342Z,100360.09
2022-11-24T06:21:10.267Z,100367.06
2022-11-24T06:22:42.748Z,100371.44
2022-11-24T06:24:14.803Z,100373.22
2022-11-24T06:25:51.421Z,100374.13
2022-11-24T06:27:23.610Z,100378.59
2022-11-24T06:28:55.621Z,100375.19
2022-11-24T06:30:27.235Z,100377.00
2022-11-24T06:31:58.943Z,100373.56
2022-11-24T06:33:32.248Z,100386.75
2022-11-24T06:35:06.478Z,100385.03
2022-11-24T06:36:38.313Z,100386.00
2022-11-24T06:38:10.659Z,100399.09
2022-11-24T06:39:42.573Z,100401.72
2022-11-24T06:41:16.242Z,100391.94
2022-11-24T06:42:51.321Z,100394.41
2022-11-24T06:44:22.948Z,100399.69
2022-11-24T06:45:54.612Z,100405.00
2022-11-24T06:47:26.340Z,100398.25
2022-11-24T06:48:59.611Z,100397.56
2022-11-24T06:50:33.863Z,100408.28
2022-11-24T06:52:05.609Z,100404.00
2022-11-24T06:53:38.715Z,100414.44
2022-11-24T06:55:10.459Z,100410.09
2022-11-24T06:56:42.107Z,100415.44
2022-11-24T06:58:14.066Z,100411.03
2022-11-24T06:59:45.671Z,100412.75
2022-11-24T07:01:18.737Z,100420.63
2022-11-24T07:02:50.606Z,100429.41
2022-11-24T07:04:22.271Z,100429.47
2022-11-24T07:05:58.064Z,100440.06
2022-11-24T07:07:29.729Z,100444.53
2022-11-24T07:09:01.479Z,100440.22
2022-11-24T07:10:33.457Z,100449.91
2022-11-24T07:12:06.025Z,100452.63
2022-11-24T07:13:37.759Z,100450.81
2022-11-24T07:15:10.262Z,100454.25
2022-11-24T07:16:42.352Z,100451.63
2022-11-24T07:18:14.320Z,100458.59
2022-11-24T07:19:46.209Z,100460.25
2022-11-24T07:21:20.290Z,100462.00
2022-11-24T07:22:56.072Z,100464.59
2022-11-24T07:24:27.761Z,100471.41
2022-11-24T07:26:06.533Z,100471.28
2022-11-24T07:27:38.680Z,100472.19
2022-11-24T07:29:10.391Z,100475.63
2022-11-24T07:30:42.038Z,100479.91
2022-11-24T07:32:13.753Z,100484.28
2022-11-24T07:33:48.308Z,100492.91
2022-11-24T07:35:19.964Z,100499.03
2022-11-24T07:36:53.045Z,100498.13
2022-11-24T07:38:24.653Z,100499.88
2022-11-24T07:39:56.277Z,100505.84
2022-11-24T07:41:27.942Z,100504.03
2022-11-24T07:43:00.348Z,100514.44
2022-11-24T07:44:32.140Z,100514.38
2022-11-24T07:46:06.375Z,100522.22
2022-11-24T07:47:39.452Z,100518.59
2022-11-24T07:49:11.098Z,100526.41
2022-11-24T07:50:42.708Z,100529.75
2022-11-24T07:52:15.676Z,100538.38
2022-11-24T07:53:47.378Z,100540.97
2022-11-24T07:55:19.143Z,100539.19
2022-11-24T07:56:50.807Z,100540.09
2022-11-24T07:58:22.971Z,100547.06
2022-11-24T07:59:54.683Z,100554.88
2022-11-24T08:01:26.395Z,100553.16
2022-11-24T08:02:58.051Z,100553.84
2022-11-24T08:04:29.599Z,100553.91
2022-11-24T08:06:39.878Z,100558.94
2022-11-24T08:07:54.533Z,100562.31
2022-11-24T08:09:26.237Z,100562.28
2022-11-24T08:10:57.838Z,100569.25
2022-11-24T08:12:29.605Z,100571.09
2022-11-24T08:14:01.257Z,100565.84
2022-11-24T08:15:32.912Z,100576.47
2022-11-24T08:17:04.631Z,100575.41
2022-11-24T08:18:37.290Z,100576.22
2022-11-24T08:20:10.402Z,100569.81
2022-11-24T08:21:42.061Z,100578.34
2022-11-24T08:23:15.249Z,100581.69
2022-11-24T08:24:48.684Z,100580.94
2022-11-24T08:26:20.379Z,100581.69
2022-11-24T08:27:52.074Z,100587.66
2022-11-24T08:29:28.380Z,100590.09
2022-11-24T08:31:05.071Z,100586.50
2022-11-24T08:32:36.755Z,100589.13
2022-11-24T08:34:08.533Z,100598.69
2022-11-24T08:35:40.364Z,100595.00
2022-11-24T08:37:12.388Z,100594.13
2022-11-24T08:38:46.199Z,100594.66
2022-11-24T08:40:17.953Z,100604.13
2022-11-24T08:41:49.573Z,100601.31
2022-11-24T08:43:21.161Z,100598.63
2022-11-24T08:44:58.820Z,100603.94
2022-11-24T08:46:30.821Z,100619.00
2022-11-24T08:48:02.493Z,100609.44
2022-11-24T08:49:34.236Z,100612.13
2022-11-24T08:51:08.044Z,100619.09
2022-11-24T08:52:39.743Z,100621.72
2022-11-24T08:54:15.231Z,100621.56
2022-11-24T08:55:46.882Z,100623.19
2022-11-24T08:57:21.738Z,100625.88
2022-11-24T08:58:54.131Z,100631.13
2022-11-24T09:00:25.880Z,100630.16
2022-11-24T09:01:57.543Z,100630.78
2022-11-24T09:03:29.336Z,100636.88
2022-11-24T09:05:00.982Z,100641.06
2022-11-24T09:06:32.624Z,100636.53
2022-11-24T09:08:04.712Z,100645.97
2022-11-24T09:09:37.720Z,100645.03
2022-11-24T09:11:11.192Z,100645.72
2022-11-24T09:12:44.130Z,100649.31
2022-11-24T09:14:15.794Z,100646.78
2022-11-24T09:15:47.425Z,100646.91
2022-11-24T09:17:19.003Z,100645.97
2022-11-24T09:18:55.095Z,100655.59
2022-11-24T09:20:26.685Z,100658.31
2022-11-24T09:21:58.314Z,100661.25
2022-11-24T09:23:29.945Z,100664.84
2022-11-24T09:25:02.969Z,100655.94
2022-11-24T09:26:36.816Z,100661.19
2022-11-24T09:28:08.458Z,100663.53
2022-11-24T09:29:40.116Z,100670.19
2022-11-24T09:31:13.767Z,100672.47
2022-11-24T09:32:45.470Z,100677.56
2022-11-24T09:34:17.310Z,100681.91
2022-11-24T09:35:49.739Z,100675.59
2022-11-24T09:37:21.394Z,100680.63
2022-11-24T09:38:53.302Z,100684.88
2022-11-24T09:40:27.032Z,100681.13
2022-11-24T09:42:08.261Z,100683.66
2022-11-24T09:43:45.920Z,100691.84
2022-11-24T09:45:57.100Z,100693.44
2022-11-24T09:47:28.037Z,100696.06
2022-11-24T09:49:04.213Z,100690.75
2022-11-24T09:50:38.643Z,100691.53
2022-11-24T09:52:16.687Z,100693.09
2022-11-24T09:53:55.017Z,100696.31
2022-11-24T09:55:39.073Z,100685.56
2022-11-24T09:57:12.529Z,100694.25
2022-11-24T09:58:48.290Z,100694.38
2022-11-24T10:00:20.173Z,100697.06
2022-11-24T10:01:52.571Z,100692.75
2022-11-24T10:03:29.511Z,100703.28
2022-11-24T10:05:01.274Z,100709.34
2022-11-24T10:06:39.400Z,100706.34
2022-11-24T10:08:23.759Z,100705.38
2022-11-24T10:10:03.293Z,100708.81
2022-11-24T10:11:42.921Z,100708.66
2022-11-24T10:13:33.244Z,100710.00
2022-11-24T10:15:24.424Z,100722.00
2022-11-24T10:17:07.336Z,100714.81
2022-11-24T10:18:56.736Z,100719.50
2022-11-24T10:20:40.477Z,100725.63
2022-11-24T10:22:28.969Z,100728.19
2022-11-24T10:24:35.484Z,100718.50
2022-11-24T10:26:13.071Z,100734.06
2022-11-24T10:27:50.264Z,100721.63
2022-11-24T10:29:27.041Z,100730.97
2022-11-24T10:31:13.307Z,100734.56
2022-11-24T10:32:47.860Z,100733.69
2022-11-24T10:34:25.031Z,100747.78
2022-11-24T10:36:04.064Z,100731.72
2022-11-24T10:37:40.604Z,100743.13
2022-11-24T10:39:19.845Z,100738.53
2022-11-24T10:40:58.244Z,100729.59
2022-11-24T10:42:31.923Z,100736.63
2022-11-24T10:44:05.010Z,100739.44
2022-11-24T10:45:39.189Z,100743.63
2022-11-24T10:47:18.598Z,100744.53
2022-11-24T10:48:53.552Z,100752.78
2022-11-24T10:50:27.383Z,100751.06
2022-11-24T10:52:05.911Z,100757.16
2022-11-24T10:53:41.930Z,100757.94
2022-11-24T10:55:13.655Z,100753.06
2022-11-24T10:56:47.193Z,100759.25
2022-11-24T10:58:23.649Z,100765.16
2022-11-24T10:59:56.886Z,100752.00
2022-11-24T11:01:32.814Z,100755.63
2022-11-24T11:03:20.900Z,100764.19
2022-11-24T11:04:52.685Z,100758.56
2022-11-24T11:06:26.646Z,100760.88
2022-11-24T11:08:17.096Z,100759.78
2022-11-24T11:09:49.375Z,100762.25
2022-11-24T11:11:27.339Z,100761.34
2022-11-24T11:12:59.013Z,100759.50
2022-11-24T11:14:32.410Z,100764.91
2022-11-24T11:16:24.158Z,100766.16
2022-11-24T11:18:00.895Z,100763.63
2022-11-24T11:19:55.473Z,100754.63
2022-11-24T11:21:33.145Z,100766.88
2022-11-24T11:23:16.702Z,100770.09
2022-11-24T11:25:03.213Z,100765.53
2022-11-24T11:26:37.727Z,100773.38
2022-11-24T11:28:29.582Z,100776.13
2022-11-24T11:34:23.200Z,100782.19
2022-11-24T11:36:01.487Z,100788.13
2022-11-24T11:37:33.711Z,100783.56
2022-11-24T11:39:05.871Z,100785.22
2022-11-24T11:40:37.823Z,100777.31
2022-11-24T11:42:45.284Z,100786.66
2022-11-24T11:44:21.492Z,100788.44
2022-11-24T11:46:01.490Z,100787.63
2022-11-24T11:47:38.272Z,100795.59
2022-11-24T11:49:12.198Z,100793.69
2022-11-24T11:53:00.440Z,100780.19
2022-11-24T11:54:50.011Z,100783.84
2022-11-24T11:56:25.904Z,100786.66
2022-11-24T11:58:10.133Z,100792.03
2022-11-24T12:00:01.892Z,100785.00
2022-11-24T12:01:46.852Z,100776.91
2022-11-24T12:03:57.925Z,100779.50
2022-11-24T12:05:34.860Z,100776.06
2022-11-24T12:07:33.082Z,100775.94
2022-11-24T12:09:21.325Z,100787.13
2022-11-24T12:11:02.407Z,100777.53
2022-11-24T12:12:46.941Z,100780.47
2022-11-24T12:14:29.605Z,100784.41
2022-11-24T12:16:09.826Z,100780.97
2022-11-24T12:17:48.037Z,100777.16
2022-11-24T12:19:34.182Z,100775.19
2022-11-24T12:21:17.950Z,100773.25
2022-11-24T12:23:02.867Z,100771.25
2022-11-24T12:24:45.025Z,100774.50
2022-11-24T12:26:26.921Z,100778.69
2022-11-24T12:28:13.092Z,100774.25
2022-11-24T12:30:12.716Z,100781.97
2022-11-24T12:31:57.076Z,100783.69
2022-11-24T12:33:49.138Z,100778.34
2022-11-24T12:35:28.675Z,100772.09
2022-11-24T12:37:18.560Z,100778.34
2022-11-24T12:38:58.291Z,100775.59
2022-11-24T12:40:40.901Z,100778.94
2022-11-24T12:42:30.108Z,100775.53
2022-11-24T12:44:02.869Z,100785.22
2022-11-24T12:45:42.968Z,100779.59
2022-11-24T12:47:17.728Z,100787.22
2022-11-24T12:48:59.674Z,100779.03
2022-11-24T12:50:37.456Z,100772.19
2022-11-24T12:52:19.456Z,100768.72
2022-11-24T12:53:52.949Z,100779.09
2022-11-24T12:55:25.572Z,100768.47
2022-11-24T12:57:04.676Z,100776.81
2022-11-24T12:58:45.653Z,100770.44
2022-11-24T13:00:21.879Z,100771.97
2022-11-24T13:02:04.536Z,100781.31
2022-11-24T13:03:45.149Z,100776.84
2022-11-24T13:05:23.192Z,100775.00
2022-11-24T13:07:01.422Z,100780.84
2022-11-24T13:08:36.651Z,100781.56
2022-11-24T13:10:54.133Z,100782.41
2022-11-24T13:12:22.094Z,100783.22
2022-11-24T13:14:00.680Z,100784.91
2022-11-24T13:16:07.051Z,100786.63
2022-11-24T13:18:02.853Z,100790.78
2022-11-24T13:19:38.034Z,100792.50
2022-11-24T13:21:42.988Z,100786.81
2022-11-24T13:23:25.259Z,100784.59
2022-11-24T13:25:16.251Z,100792.16
2022-11-24T13:26:50.422Z,100793.56
2022-11-24T13:29:03.535Z,100785.53
2022-11-24T13:31:08.003Z,100794.16
2022-11-24T13:33:00.203Z,100798.72
2022-11-24T13:34:57.163Z,100789.31
2022-11-24T13:36:33.996Z,100798.09
2022-11-24T13:38:39.935Z,100792.88
2022-11-24T13:40:45.842Z,100804.72
2022-11-24T13:42:44.088Z,100799.88
2022-11-24T13:44:25.287Z,100805.22
2022-11-24T13:45:57.073Z,100797.50
2022-11-24T13:47:34.434Z,100801.41
2022-11-24T13:49:14.224Z,100805.25
2022-11-24T13:51:17.201Z,100801.69
2022-11-24T13:52:52.223Z,100805.13
2022-11-24T13:54:27.320Z,100811.25
2022-11-24T13:56:00.832Z,100808.81
2022-11-24T13:57:34.159Z,100808.09
2022-11-24T13:59:17.245Z,100810.81
2022-11-24T14:01:19.438Z,100801.13
2022-11-24T14:02:53.855Z,100804.56
2022-11-24T14:04:31.103Z,100808.38
2022-11-24T14:06:04.573Z,100805.22
2022-11-24T14:07:36.341Z,100800.00
2022-11-24T14:09:28.350Z,100793.03
2022-11-24T14:11:01.686Z,100797.31
2022-11-24T14:12:33.989Z,100798.22
2022-11-24T14:14:16.039Z,100806.28
2022-11-24T14:15:59.448Z,100797.81
2022-11-24T14:17:31.421Z,100805.03
2022-11-24T14:19:09.807Z,100797.31
2022-11-24T14:20:42.874Z,100809.63
2022-11-24T14:22:17.927Z,100799.28
2022-11-24T14:23:53.174Z,100801.28
2022-11-24T14:25:29.966Z,100801.47
2022-11-24T14:27:01.692Z,100808.47
2022-11-24T14:28:33.393Z,100805.91
2022-11-24T14:30:18.743Z,100802.59
2022-11-24T14:31:53.572Z,100796.56
2022-11-24T14:33:25.607Z,100796.50
2022-11-24T14:34:57.421Z,100807.88
2022-11-24T14:36:30.519Z,100796.41
2022-11-24T14:38:04.084Z,100799.91
2022-11-24T14:39:40.982Z,100789.34
2022-11-24T14:41:25.337Z,100787.50
2022-11-24T14:42:57.073Z,100782.16
2022-11-24T14:44:31.609Z,100782.03
2022-11-24T14:46:05.936Z,100777.59
2022-11-24T14:47:45.092Z,100775.75
2022-11-24T14:49:20.016Z,100771.47
2022-11-24T14:50:51.910Z,100780.19
2022-11-24T14:52:26.017Z,100782.88
2022-11-24T14:54:01.723Z,100786.53
2022-11-24T14:55:39.072Z,100794.50
2022-11-24T14:57:24.274Z,100785.84
2022-11-24T14:58:57.377Z,100796.50
2022-11-24T15:00:31.567Z,100798.31
2022-11-24T15:02:24.105Z,100801.03
2022-11-24T15:04:17.931Z,100792.38
2022-11-24T15:06:00.947Z,100793.38
2022-11-24T15:07:37.257Z,100804.81
2022-11-24T15:09:25.372Z,100804.03
2022-11-24T15:11:00.357Z,100804.19
2022-11-24T15:12:36.436Z,100804.25
2022-11-24T15:14:31.514Z,100812.28
2022-11-24T15:16:06.624Z,100818.56
2022-11-24T15:17:46.302Z,100808.16
2022-11-24T15:19:18.091Z,100812.72
2022-11-24T15:20:49.811Z,100820.75
2022-11-24T15:22:35.751Z,100816.38
2022-11-24T15:24:16.915Z,100820.00
2022-11-24T15:25:49.815Z,100813.94
2022-11-24T15:27:21.485Z,100823.72
2022-11-24T15:28:53.163Z,100810.63
2022-11-24T15:30:25.402Z,100811.47
2022-11-24T15:31:58.629Z,100810.63
2022-11-24T15:33:31.074Z,100805.38
2022-11-24T15:35:02.885Z,100803.66
2022-11-24T15:36:34.579Z,100800.16
2022-11-24T15:38:07.661Z,100807.25
2022-11-24T15:39:39.373Z,100808.25
2022-11-24T15:41:19.047Z,100810.13
2022-11-24T15:42:52.327Z,100814.66
2022-11-24T15:44:23.992Z,100806.84
2022-11-24T15:45:55.900Z,100819.16
2022-11-24T15:47:27.551Z,100812.28
2022-11-24T15:48:59.225Z,100818.56
2022-11-24T15:50:30.911Z,100823.91
2022-11-24T15:52:02.603Z,100823.91
2022-11-24T15:53:38.945Z,100830.09
2022-11-24T15:55:18.237Z,100837.28
2022-11-24T15:56:49.899Z,100827.75
2022-11-24T15:58:21.556Z,100833.03
2022-11-24T15:59:54.825Z,100831.38
2022-11-24T16:01:34.328Z,100833.25
2022-11-24T16:03:38.464Z,100834.28
2022-11-24T16:04:57.948Z,100830.06
2022-11-24T16:06:29.859Z,100843.28
2022-11-24T16:08:01.747Z,100839.03
2022-11-24T16:09:34.837Z,100840.91
2022-11-24T16:11:06.682Z,100834.03
2022-11-24T16:12:38.328Z,100835.78
2022-11-24T16:14:10.016Z,100837.56
2022-11-24T16:15:41.763Z,100832.34
2022-11-24T16:17:13.438Z,100841.16
2022-11-24T16:18:45.462Z,100850.03
2022-11-24T16:20:17.779Z,100841.31
2022-11-24T16:21:49.676Z,100841.31
2022-11-24T16:23:21.439Z,100843.09
2022-11-24T16:24:54.502Z,100852.75
2022-11-24T16:26:26.257Z,100845.88
2022-11-24T16:27:58.390Z,100847.75
2022-11-24T16:29:34.011Z,100845.22
2022-11-24T16:31:08.691Z,100845.28
2022-11-24T16:32:40.505Z,100845.38
2022-11-24T16:34:12.473Z,100842.81
2022-11-24T16:35:46.816Z,100849.00
2022-11-24T16:37:18.857Z,100852.66
2022-11-24T16:38:50.668Z,100848.53
2022-11-24T16:40:23.766Z,100848.63
2022-11-24T16:41:55.382Z,100850.53
2022-11-24T16:43:28.615Z,100849.81
2022-11-24T16:45:00.280Z,100855.22
2022-11-24T16:46:32.275Z,100866.75
2022-11-24T16:48:04.273Z,100845.91
2022-11-24T16:49:36.112Z,100853.94
2022-11-24T16:51:10.009Z,100859.28
2022-11-24T16:52:41.762Z,100856.00
2022-11-24T16:54:13.406Z,100846.44
2022-11-24T16:55:56.657Z,100851.78
2022-11-24T16:57:28.357Z,100845.75
2022-11-24T16:59:00.135Z,100847.72
2022-11-24T17:00:31.853Z,100853.06
2022-11-24T17:02:03.870Z,100855.78
2022-11-24T17:03:38.216Z,100847.19
2022-11-24T17:05:09.982Z,100858.69
2022-11-24T17:06:41.793Z,100862.25
2022-11-24T17:08:13.390Z,100853.59
2022-11-24T17:09:45.253Z,100853.66
2022-11-24T17:11:21.992Z,100856.34
2022-11-24T17:12:53.678Z,100859.91
2022-11-24T17:14:25.701Z,100854.69
2022-11-24T17:15:57.324Z,100865.25
2022-11-24T17:17:28.949Z,100859.25
2022-11-24T17:19:00.629Z,100871.63
2022-11-24T17:20:32.415Z,100875.25
2022-11-24T17:22:04.173Z,100874.47
2022-11-24T17:23:35.897Z,100877.19
2022-11-24T17:25:08.745Z,100868.50
2022-11-24T17:26:46.084Z,100876.38
2022-11-24T17:28:20.442Z,100881.72
2022-11-24T17:29:52.156Z,100878.22
2022-11-24T17:31:25.756Z,100874.69
2022-11-24T17:32:57.440Z,100875.59
2022-11-24T17:34:29.110Z,100873.88
2022-11-24T17:36:04.757Z,100880.81
2022-11-24T17:37:37.006Z,100876.38
2022-11-24T17:39:09.452Z,100878.13
2022-11-24T17:40:46.495Z,100880.72
2022-11-24T17:42:19.513Z,100887.69
2022-11-24T17:43:51.755Z,100880.72
2022-11-24T17:45:23.384Z,100884.25
2022-11-24T17:46:55.366Z,100874.69
2022-11-24T17:48:27.767Z,100883.47
2022-11-24T17:49:59.739Z,100887.00
2022-11-24T17:51:31.398Z,100884.41
2022-11-24T17:53:03.020Z,100878.34
2022-11-24T17:54:49.999Z,100885.41
2022-11-24T17:56:23.751Z,100882.03
2022-11-24T17:57:57.325Z,100882.13
2022-11-24T17:59:29.030Z,100878.72
2022-11-24T18:01:01.597Z,100883.97
2022-11-24T18:02:33.668Z,100890.19
2022-11-24T18:04:05.416Z,100882.38
2022-11-24T18:05:37.548Z,100886.91
2022-11-24T18:07:09.289Z,100892.19
2022-11-24T18:08:42.952Z,100893.13
2022-11-24T18:10:14.775Z,100899.28
2022-11-24T18:11:47.745Z,100892.31
2022-11-24T18:13:41.138Z,100900.19
2022-11-24T18:15:12.462Z,100887.19